Smoketown, Pennsylvania
Current Conditions -  °F | °C
As of 10:53 AM on Thursday 27 Nov 2014 (Local Time) from KLNS Reporting Station
Overcast Overcast  
Wind Chill: 27°   Ceiling: 6000
Heat Index: 35°   Visibility: 10mi
Dew Point: 26°   Wind: 10mph
Humidity: 70%   Direction: 320°NW
Pressure: 30.04"   Gusts: NA
Location:  40.03°N, 76.19°W
Report Text: KLNS 271553Z 32009KT 10SM OVC060 02/M03 A3004 RMK AO2 SLP175 T00171033
Loading
Personal Weather Stations






























Interactive Weather Map New forecast layout! Learn more

10-Day Weather Forecast

Advertisements
Track Severe Weather on mobile